sensor_id;sensor_type;location;lat;lon;timestamp;P1;durP1;ratioP1;P2;durP2;ratioP2
8986;SDS011;4529;51.360;12.474;2023-04-15T00:02:46;4.77;;;4.37;;
8986;SDS011;4529;51.360;12.474;2023-04-15T00:07:49;5.77;;;5.17;;
8986;SDS011;4529;51.360;12.474;2023-04-15T00:12:53;5.40;;;4.90;;
8986;SDS011;4529;51.360;12.474;2023-04-15T00:17:57;5.07;;;4.57;;
8986;SDS011;4529;51.360;12.474;2023-04-15T00:23:01;5.53;;;4.83;;
8986;SDS011;4529;51.360;12.474;2023-04-15T00:28:05;5.20;;;3.97;;
8986;SDS011;4529;51.360;12.474;2023-04-15T00:33:09;4.33;;;3.93;;
8986;SDS011;4529;51.360;12.474;2023-04-15T00:38:12;4.23;;;3.73;;
8986;SDS011;4529;51.360;12.474;2023-04-15T00:43:16;3.60;;;3.30;;
8986;SDS011;4529;51.360;12.474;2023-04-15T00:48:19;3.77;;;3.37;;
8986;SDS011;4529;51.360;12.474;2023-04-15T00:53:23;4.27;;;3.77;;
8986;SDS011;4529;51.360;12.474;2023-04-15T00:58:27;4.03;;;3.60;;
8986;SDS011;4529;51.360;12.474;2023-04-15T01:03:31;4.37;;;3.97;;
8986;SDS011;4529;51.360;12.474;2023-04-15T01:08:34;4.83;;;4.03;;
8986;SDS011;4529;51.360;12.474;2023-04-15T01:13:38;5.40;;;4.60;;
8986;SDS011;4529;51.360;12.474;2023-04-15T01:18:41;5.20;;;4.63;;
8986;SDS011;4529;51.360;12.474;2023-04-15T01:23:45;5.27;;;4.77;;
8986;SDS011;4529;51.360;12.474;2023-04-15T01:28:48;5.27;;;4.57;;
8986;SDS011;4529;51.360;12.474;2023-04-15T01:33:52;5.33;;;4.47;;
8986;SDS011;4529;51.360;12.474;2023-04-15T01:38:56;4.80;;;4.37;;
8986;SDS011;4529;51.360;12.474;2023-04-15T01:44:00;4.77;;;4.20;;
8986;SDS011;4529;51.360;12.474;2023-04-15T01:49:03;5.00;;;4.30;;
8986;SDS011;4529;51.360;12.474;2023-04-15T01:54:07;4.93;;;4.43;;
8986;SDS011;4529;51.360;12.474;2023-04-15T01:59:10;6.30;;;5.00;;
8986;SDS011;4529;51.360;12.474;2023-04-15T02:04:14;5.13;;;4.63;;
8986;SDS011;4529;51.360;12.474;2023-04-15T02:09:18;5.43;;;4.03;;
8986;SDS011;4529;51.360;12.474;2023-04-15T02:14:22;4.83;;;4.10;;
8986;SDS011;4529;51.360;12.474;2023-04-15T02:19:25;4.83;;;4.33;;
8986;SDS011;4529;51.360;12.474;2023-04-15T02:24:29;4.70;;;3.90;;
8986;SDS011;4529;51.360;12.474;2023-04-15T02:29:32;4.20;;;3.80;;
8986;SDS011;4529;51.360;12.474;2023-04-15T02:34:36;4.63;;;4.20;;
8986;SDS011;4529;51.360;12.474;2023-04-15T02:39:39;4.63;;;3.97;;
8986;SDS011;4529;51.360;12.474;2023-04-15T02:44:43;3.57;;;3.27;;
8986;SDS011;4529;51.360;12.474;2023-04-15T02:49:47;4.10;;;3.60;;
8986;SDS011;4529;51.360;12.474;2023-04-15T02:54:52;3.90;;;3.60;;
8986;SDS011;4529;51.360;12.474;2023-04-15T02:59:55;4.13;;;3.73;;
8986;SDS011;4529;51.360;12.474;2023-04-15T03:04:58;4.03;;;3.63;;
8986;SDS011;4529;51.360;12.474;2023-04-15T03:10:02;3.60;;;3.30;;
8986;SDS011;4529;51.360;12.474;2023-04-15T03:15:06;4.70;;;4.20;;
8986;SDS011;4529;51.360;12.474;2023-04-15T03:20:09;4.20;;;3.80;;
8986;SDS011;4529;51.360;12.474;2023-04-15T03:25:13;4.20;;;3.80;;
8986;SDS011;4529;51.360;12.474;2023-04-15T03:30:16;4.10;;;3.70;;
8986;SDS011;4529;51.360;12.474;2023-04-15T03:35:19;4.53;;;4.13;;
8986;SDS011;4529;51.360;12.474;2023-04-15T03:40:24;4.20;;;3.80;;
8986;SDS011;4529;51.360;12.474;2023-04-15T03:45:28;4.07;;;3.67;;
8986;SDS011;4529;51.360;12.474;2023-04-15T03:50:32;3.80;;;3.40;;
8986;SDS011;4529;51.360;12.474;2023-04-15T03:55:36;3.97;;;3.57;;
8986;SDS011;4529;51.360;12.474;2023-04-15T04:00:40;3.80;;;3.40;;
8986;SDS011;4529;51.360;12.474;2023-04-15T04:05:44;3.60;;;3.30;;
8986;SDS011;4529;51.360;12.474;2023-04-15T04:10:48;3.47;;;3.17;;
8986;SDS011;4529;51.360;12.474;2023-04-15T04:15:51;3.50;;;3.20;;
8986;SDS011;4529;51.360;12.474;2023-04-15T04:20:55;3.57;;;3.10;;
8986;SDS011;4529;51.360;12.474;2023-04-15T04:25:58;3.67;;;3.37;;
8986;SDS011;4529;51.360;12.474;2023-04-15T04:31:01;3.30;;;3.00;;
8986;SDS011;4529;51.360;12.474;2023-04-15T04:36:06;3.30;;;3.00;;
8986;SDS011;4529;51.360;12.474;2023-04-15T04:41:09;3.30;;;3.00;;
8986;SDS011;4529;51.360;12.474;2023-04-15T04:46:12;3.40;;;3.10;;
8986;SDS011;4529;51.360;12.474;2023-04-15T04:51:17;3.60;;;3.30;;
8986;SDS011;4529;51.360;12.474;2023-04-15T04:56:21;3.30;;;3.00;;
8986;SDS011;4529;51.360;12.474;2023-04-15T05:01:24;3.40;;;3.10;;
8986;SDS011;4529;51.360;12.474;2023-04-15T05:06:28;3.50;;;3.20;;
8986;SDS011;4529;51.360;12.474;2023-04-15T05:11:31;3.77;;;3.47;;
8986;SDS011;4529;51.360;12.474;2023-04-15T05:16:35;3.50;;;3.20;;
8986;SDS011;4529;51.360;12.474;2023-04-15T05:21:39;3.93;;;3.53;;
8986;SDS011;4529;51.360;12.474;2023-04-15T05:26:43;4.00;;;3.60;;
8986;SDS011;4529;51.360;12.474;2023-04-15T05:31:47;4.30;;;3.90;;
8986;SDS011;4529;51.360;12.474;2023-04-15T05:36:50;4.50;;;3.70;;
8986;SDS011;4529;51.360;12.474;2023-04-15T05:41:54;5.40;;;4.47;;
8986;SDS011;4529;51.360;12.474;2023-04-15T05:46:58;5.13;;;4.00;;
8986;SDS011;4529;51.360;12.474;2023-04-15T05:52:01;4.20;;;3.80;;
8986;SDS011;4529;51.360;12.474;2023-04-15T05:57:04;6.13;;;4.13;;
8986;SDS011;4529;51.360;12.474;2023-04-15T06:02:08;5.30;;;3.97;;
8986;SDS011;4529;51.360;12.474;2023-04-15T06:07:12;4.87;;;4.37;;
8986;SDS011;4529;51.360;12.474;2023-04-15T06:12:16;4.83;;;4.33;;
8986;SDS011;4529;51.360;12.474;2023-04-15T06:17:19;4.67;;;4.27;;
8986;SDS011;4529;51.360;12.474;2023-04-15T06:22:23;4.53;;;4.13;;
8986;SDS011;4529;51.360;12.474;2023-04-15T06:27:26;5.50;;;4.43;;
8986;SDS011;4529;51.360;12.474;2023-04-15T06:32:31;5.77;;;4.17;;
8986;SDS011;4529;51.360;12.474;2023-04-15T06:37:35;4.37;;;3.97;;
8986;SDS011;4529;51.360;12.474;2023-04-15T06:42:39;4.30;;;3.90;;
8986;SDS011;4529;51.360;12.474;2023-04-15T06:47:43;4.77;;;4.27;;
8986;SDS011;4529;51.360;12.474;2023-04-15T06:52:46;5.10;;;4.60;;
8986;SDS011;4529;51.360;12.474;2023-04-15T06:57:50;4.83;;;4.33;;
8986;SDS011;4529;51.360;12.474;2023-04-15T07:02:55;5.57;;;4.43;;
8986;SDS011;4529;51.360;12.474;2023-04-15T07:07:58;6.93;;;4.40;;
8986;SDS011;4529;51.360;12.474;2023-04-15T07:13:03;4.40;;;3.93;;
8986;SDS011;4529;51.360;12.474;2023-04-15T07:18:05;4.30;;;3.90;;
8986;SDS011;4529;51.360;12.474;2023-04-15T07:23:09;4.47;;;4.07;;
8986;SDS011;4529;51.360;12.474;2023-04-15T07:28:13;3.90;;;3.50;;
8986;SDS011;4529;51.360;12.474;2023-04-15T07:33:17;4.33;;;3.90;;
8986;SDS011;4529;51.360;12.474;2023-04-15T07:38:21;5.03;;;4.17;;
8986;SDS011;4529;51.360;12.474;2023-04-15T07:43:25;5.37;;;4.10;;
8986;SDS011;4529;51.360;12.474;2023-04-15T07:48:28;4.73;;;3.47;;
8986;SDS011;4529;51.360;12.474;2023-04-15T07:53:32;5.10;;;4.07;;
8986;SDS011;4529;51.360;12.474;2023-04-15T07:58:35;5.20;;;4.40;;
8986;SDS011;4529;51.360;12.474;2023-04-15T08:03:39;6.03;;;4.53;;
8986;SDS011;4529;51.360;12.474;2023-04-15T08:08:43;5.50;;;4.40;;
8986;SDS011;4529;51.360;12.474;2023-04-15T08:13:47;5.50;;;4.70;;
8986;SDS011;4529;51.360;12.474;2023-04-15T08:18:51;6.30;;;4.67;;
8986;SDS011;4529;51.360;12.474;2023-04-15T08:23:54;7.10;;;4.80;;
8986;SDS011;4529;51.360;12.474;2023-04-15T08:28:57;4.93;;;4.43;;
8986;SDS011;4529;51.360;12.474;2023-04-15T08:34:01;7.17;;;4.90;;
8986;SDS011;4529;51.360;12.474;2023-04-15T08:39:06;6.80;;;4.97;;
8986;SDS011;4529;51.360;12.474;2023-04-15T08:44:10;6.93;;;5.57;;
8986;SDS011;4529;51.360;12.474;2023-04-15T08:49:14;7.37;;;5.93;;
8986;SDS011;4529;51.360;12.474;2023-04-15T08:54:19;11.43;;;5.63;;
8986;SDS011;4529;51.360;12.474;2023-04-15T08:59:22;7.60;;;6.10;;
8986;SDS011;4529;51.360;12.474;2023-04-15T09:04:26;6.60;;;5.27;;
8986;SDS011;4529;51.360;12.474;2023-04-15T09:09:30;7.00;;;4.93;;
8986;SDS011;4529;51.360;12.474;2023-04-15T09:14:34;5.73;;;4.93;;
8986;SDS011;4529;51.360;12.474;2023-04-15T09:19:37;7.73;;;5.33;;
8986;SDS011;4529;51.360;12.474;2023-04-15T09:24:41;8.47;;;5.67;;
8986;SDS011;4529;51.360;12.474;2023-04-15T09:29:48;7.23;;;5.63;;
8986;SDS011;4529;51.360;12.474;2023-04-15T09:34:49;9.70;;;7.40;;
8986;SDS011;4529;51.360;12.474;2023-04-15T09:39:53;11.27;;;7.67;;
8986;SDS011;4529;51.360;12.474;2023-04-15T09:45:07;10.90;;;8.10;;
8986;SDS011;4529;51.360;12.474;2023-04-15T09:50:10;11.23;;;8.50;;
8986;SDS011;4529;51.360;12.474;2023-04-15T09:55:16;11.83;;;8.87;;
8986;SDS011;4529;51.360;12.474;2023-04-15T10:00:18;13.17;;;9.27;;
8986;SDS011;4529;51.360;12.474;2023-04-15T10:05:21;15.90;;;10.07;;
8986;SDS011;4529;51.360;12.474;2023-04-15T10:10:26;13.97;;;9.90;;
8986;SDS011;4529;51.360;12.474;2023-04-15T10:15:30;14.23;;;9.97;;
8986;SDS011;4529;51.360;12.474;2023-04-15T10:20:34;15.00;;;11.57;;
8986;SDS011;4529;51.360;12.474;2023-04-15T10:25:38;14.33;;;10.77;;
8986;SDS011;4529;51.360;12.474;2023-04-15T10:30:42;14.33;;;11.03;;
8986;SDS011;4529;51.360;12.474;2023-04-15T10:35:46;14.97;;;11.53;;
8986;SDS011;4529;51.360;12.474;2023-04-15T10:40:49;15.93;;;11.63;;
8986;SDS011;4529;51.360;12.474;2023-04-15T10:45:52;16.03;;;11.60;;
8986;SDS011;4529;51.360;12.474;2023-04-15T10:50:56;17.90;;;11.43;;
8986;SDS011;4529;51.360;12.474;2023-04-15T10:55:59;16.33;;;12.07;;
8986;SDS011;4529;51.360;12.474;2023-04-15T11:01:04;15.70;;;11.37;;
8986;SDS011;4529;51.360;12.474;2023-04-15T11:06:08;16.87;;;11.30;;
8986;SDS011;4529;51.360;12.474;2023-04-15T11:11:12;14.50;;;11.97;;
8986;SDS011;4529;51.360;12.474;2023-04-15T11:16:16;14.87;;;10.77;;
8986;SDS011;4529;51.360;12.474;2023-04-15T11:21:20;12.00;;;10.00;;
8986;SDS011;4529;51.360;12.474;2023-04-15T11:26:24;12.97;;;10.43;;
8986;SDS011;4529;51.360;12.474;2023-04-15T11:31:27;12.70;;;10.50;;
8986;SDS011;4529;51.360;12.474;2023-04-15T11:36:30;12.57;;;9.90;;
8986;SDS011;4529;51.360;12.474;2023-04-15T11:41:34;10.77;;;9.37;;
8986;SDS011;4529;51.360;12.474;2023-04-15T11:46:37;11.70;;;9.00;;
8986;SDS011;4529;51.360;12.474;2023-04-15T11:51:40;9.57;;;8.67;;
8986;SDS011;4529;51.360;12.474;2023-04-15T11:56:48;9.40;;;8.03;;
8986;SDS011;4529;51.360;12.474;2023-04-15T12:01:47;10.73;;;7.67;;
8986;SDS011;4529;51.360;12.474;2023-04-15T12:06:51;8.40;;;7.30;;
8986;SDS011;4529;51.360;12.474;2023-04-15T12:11:56;9.53;;;7.53;;
8986;SDS011;4529;51.360;12.474;2023-04-15T12:16:58;9.17;;;7.50;;
8986;SDS011;4529;51.360;12.474;2023-04-15T12:22:05;8.20;;;7.40;;
8986;SDS011;4529;51.360;12.474;2023-04-15T12:27:09;8.00;;;7.20;;
8986;SDS011;4529;51.360;12.474;2023-04-15T12:32:12;9.03;;;6.57;;
8986;SDS011;4529;51.360;12.474;2023-04-15T12:37:21;9.10;;;6.43;;
8986;SDS011;4529;51.360;12.474;2023-04-15T12:42:25;9.67;;;5.90;;
8986;SDS011;4529;51.360;12.474;2023-04-15T12:47:29;7.43;;;5.90;;
8986;SDS011;4529;51.360;12.474;2023-04-15T12:52:33;5.63;;;5.10;;
8986;SDS011;4529;51.360;12.474;2023-04-15T12:57:38;5.97;;;5.37;;
8986;SDS011;4529;51.360;12.474;2023-04-15T13:02:42;6.07;;;5.30;;
8986;SDS011;4529;51.360;12.474;2023-04-15T13:07:46;5.90;;;5.10;;
8986;SDS011;4529;51.360;12.474;2023-04-15T13:12:50;5.53;;;4.73;;
8986;SDS011;4529;51.360;12.474;2023-04-15T13:17:54;5.23;;;4.73;;
8986;SDS011;4529;51.360;12.474;2023-04-15T13:22:58;5.13;;;4.63;;
8986;SDS011;4529;51.360;12.474;2023-04-15T13:28:03;6.13;;;5.07;;
8986;SDS011;4529;51.360;12.474;2023-04-15T13:33:06;6.63;;;5.10;;
8986;SDS011;4529;51.360;12.474;2023-04-15T13:38:10;5.20;;;4.77;;
8986;SDS011;4529;51.360;12.474;2023-04-15T13:43:15;5.07;;;4.57;;
8986;SDS011;4529;51.360;12.474;2023-04-15T13:48:18;5.20;;;4.70;;
8986;SDS011;4529;51.360;12.474;2023-04-15T13:53:21;5.27;;;4.77;;
8986;SDS011;4529;51.360;12.474;2023-04-15T13:58:25;4.90;;;4.50;;
8986;SDS011;4529;51.360;12.474;2023-04-15T14:03:28;4.30;;;3.90;;
8986;SDS011;4529;51.360;12.474;2023-04-15T14:08:32;5.63;;;5.13;;
8986;SDS011;4529;51.360;12.474;2023-04-15T14:13:36;4.40;;;4.10;;
8986;SDS011;4529;51.360;12.474;2023-04-15T14:18:40;4.13;;;3.83;;
8986;SDS011;4529;51.360;12.474;2023-04-15T14:23:44;4.90;;;4.50;;
8986;SDS011;4529;51.360;12.474;2023-04-15T14:28:49;4.80;;;4.40;;
8986;SDS011;4529;51.360;12.474;2023-04-15T14:33:53;5.10;;;4.70;;
8986;SDS011;4529;51.360;12.474;2023-04-15T14:38:57;5.00;;;4.50;;
8986;SDS011;4529;51.360;12.474;2023-04-15T14:44:02;5.17;;;4.67;;
8986;SDS011;4529;51.360;12.474;2023-04-15T14:49:05;5.50;;;5.00;;
8986;SDS011;4529;51.360;12.474;2023-04-15T14:54:10;5.30;;;4.80;;
8986;SDS011;4529;51.360;12.474;2023-04-15T14:59:13;5.60;;;5.10;;
8986;SDS011;4529;51.360;12.474;2023-04-15T15:04:17;5.50;;;4.90;;
8986;SDS011;4529;51.360;12.474;2023-04-15T15:09:20;5.07;;;4.67;;
8986;SDS011;4529;51.360;12.474;2023-04-15T15:14:24;5.50;;;5.00;;
8986;SDS011;4529;51.360;12.474;2023-04-15T15:19:27;6.30;;;4.70;;
8986;SDS011;4529;51.360;12.474;2023-04-15T15:24:31;5.10;;;4.60;;
8986;SDS011;4529;51.360;12.474;2023-04-15T15:34:43;6.13;;;5.53;;
8986;SDS011;4529;51.360;12.474;2023-04-15T15:39:48;5.80;;;5.30;;
8986;SDS011;4529;51.360;12.474;2023-04-15T15:44:51;6.20;;;5.60;;
8986;SDS011;4529;51.360;12.474;2023-04-15T15:49:55;5.43;;;5.03;;
8986;SDS011;4529;51.360;12.474;2023-04-15T15:54:59;5.80;;;5.30;;
8986;SDS011;4529;51.360;12.474;2023-04-15T16:00:03;6.23;;;5.63;;
8986;SDS011;4529;51.360;12.474;2023-04-15T16:05:08;6.70;;;4.77;;
8986;SDS011;4529;51.360;12.474;2023-04-15T16:10:11;6.43;;;5.83;;
8986;SDS011;4529;51.360;12.474;2023-04-15T16:15:15;6.33;;;5.73;;
8986;SDS011;4529;51.360;12.474;2023-04-15T16:20:18;5.90;;;5.40;;
8986;SDS011;4529;51.360;12.474;2023-04-15T16:25:21;6.37;;;5.80;;
8986;SDS011;4529;51.360;12.474;2023-04-15T16:30:25;7.30;;;6.60;;
8986;SDS011;4529;51.360;12.474;2023-04-15T16:35:28;6.90;;;6.30;;
8986;SDS011;4529;51.360;12.474;2023-04-15T16:40:32;6.93;;;6.23;;
8986;SDS011;4529;51.360;12.474;2023-04-15T16:45:35;6.83;;;6.10;;
8986;SDS011;4529;51.360;12.474;2023-04-15T16:50:39;6.80;;;6.20;;
8986;SDS011;4529;51.360;12.474;2023-04-15T16:55:42;7.97;;;6.53;;
8986;SDS011;4529;51.360;12.474;2023-04-15T17:00:46;7.57;;;6.70;;
8986;SDS011;4529;51.360;12.474;2023-04-15T17:05:52;7.17;;;6.47;;
8986;SDS011;4529;51.360;12.474;2023-04-15T17:10:56;9.23;;;7.00;;
8986;SDS011;4529;51.360;12.474;2023-04-15T17:15:59;7.63;;;6.93;;
8986;SDS011;4529;51.360;12.474;2023-04-15T17:21:04;8.30;;;7.03;;
8986;SDS011;4529;51.360;12.474;2023-04-15T17:26:07;7.10;;;6.40;;
8986;SDS011;4529;51.360;12.474;2023-04-15T17:31:11;7.60;;;6.80;;
8986;SDS011;4529;51.360;12.474;2023-04-15T17:36:15;6.90;;;6.27;;
8986;SDS011;4529;51.360;12.474;2023-04-15T17:41:19;7.80;;;7.00;;
8986;SDS011;4529;51.360;12.474;2023-04-15T17:46:23;7.10;;;6.47;;
8986;SDS011;4529;51.360;12.474;2023-04-15T17:51:27;7.17;;;6.20;;
8986;SDS011;4529;51.360;12.474;2023-04-15T17:56:34;7.40;;;6.70;;
8986;SDS011;4529;51.360;12.474;2023-04-15T18:01:35;7.10;;;6.40;;
8986;SDS011;4529;51.360;12.474;2023-04-15T18:06:38;7.20;;;6.50;;
8986;SDS011;4529;51.360;12.474;2023-04-15T18:11:42;6.80;;;6.20;;
8986;SDS011;4529;51.360;12.474;2023-04-15T18:16:45;7.10;;;6.40;;
8986;SDS011;4529;51.360;12.474;2023-04-15T18:21:49;7.53;;;6.50;;
8986;SDS011;4529;51.360;12.474;2023-04-15T18:26:53;8.47;;;7.57;;
8986;SDS011;4529;51.360;12.474;2023-04-15T18:31:57;7.93;;;6.67;;
8986;SDS011;4529;51.360;12.474;2023-04-15T18:37:02;9.10;;;7.07;;
8986;SDS011;4529;51.360;12.474;2023-04-15T18:42:06;8.43;;;7.50;;
8986;SDS011;4529;51.360;12.474;2023-04-15T18:47:10;8.90;;;7.63;;
8986;SDS011;4529;51.360;12.474;2023-04-15T18:52:14;9.60;;;8.17;;
8986;SDS011;4529;51.360;12.474;2023-04-15T18:57:17;8.80;;;7.63;;
8986;SDS011;4529;51.360;12.474;2023-04-15T19:02:21;10.37;;;8.70;;
8986;SDS011;4529;51.360;12.474;2023-04-15T19:07:24;11.13;;;8.73;;
8986;SDS011;4529;51.360;12.474;2023-04-15T19:12:28;10.37;;;9.23;;
8986;SDS011;4529;51.360;12.474;2023-04-15T19:17:31;10.10;;;8.70;;
8986;SDS011;4529;51.360;12.474;2023-04-15T19:22:35;9.17;;;8.27;;
8986;SDS011;4529;51.360;12.474;2023-04-15T19:27:38;9.57;;;8.57;;
8986;SDS011;4529;51.360;12.474;2023-04-15T19:32:42;8.57;;;7.67;;
8986;SDS011;4529;51.360;12.474;2023-04-15T19:37:46;10.10;;;8.47;;
8986;SDS011;4529;51.360;12.474;2023-04-15T19:42:49;8.97;;;8.07;;
8986;SDS011;4529;51.360;12.474;2023-04-15T19:47:52;9.20;;;8.30;;
8986;SDS011;4529;51.360;12.474;2023-04-15T19:52:56;21.23;;;14.70;;
8986;SDS011;4529;51.360;12.474;2023-04-15T19:57:59;13.43;;;10.20;;
8986;SDS011;4529;51.360;12.474;2023-04-15T20:03:03;10.00;;;9.00;;
8986;SDS011;4529;51.360;12.474;2023-04-15T20:08:06;11.33;;;9.40;;
8986;SDS011;4529;51.360;12.474;2023-04-15T20:13:10;9.97;;;8.90;;
8986;SDS011;4529;51.360;12.474;2023-04-15T20:18:13;11.00;;;9.50;;
8986;SDS011;4529;51.360;12.474;2023-04-15T20:23:17;10.97;;;9.73;;
8986;SDS011;4529;51.360;12.474;2023-04-15T20:28:20;10.83;;;9.73;;
8986;SDS011;4529;51.360;12.474;2023-04-15T20:33:24;12.80;;;9.90;;
8986;SDS011;4529;51.360;12.474;2023-04-15T20:38:32;12.10;;;9.97;;
8986;SDS011;4529;51.360;12.474;2023-04-15T20:43:36;11.53;;;10.17;;
8986;SDS011;4529;51.360;12.474;2023-04-15T20:48:39;13.90;;;11.60;;
8986;SDS011;4529;51.360;12.474;2023-04-15T20:53:43;13.40;;;10.47;;
8986;SDS011;4529;51.360;12.474;2023-04-15T20:58:46;12.57;;;10.40;;
8986;SDS011;4529;51.360;12.474;2023-04-15T21:03:50;14.17;;;11.20;;
8986;SDS011;4529;51.360;12.474;2023-04-15T21:08:54;14.00;;;10.97;;
8986;SDS011;4529;51.360;12.474;2023-04-15T21:13:58;12.80;;;10.70;;
8986;SDS011;4529;51.360;12.474;2023-04-15T21:19:03;11.83;;;10.37;;
8986;SDS011;4529;51.360;12.474;2023-04-15T21:24:06;11.33;;;10.00;;
8986;SDS011;4529;51.360;12.474;2023-04-15T21:29:10;13.57;;;10.80;;
8986;SDS011;4529;51.360;12.474;2023-04-15T21:34:15;13.57;;;10.87;;
8986;SDS011;4529;51.360;12.474;2023-04-15T21:39:19;14.50;;;11.80;;
8986;SDS011;4529;51.360;12.474;2023-04-15T21:44:22;14.43;;;11.33;;
8986;SDS011;4529;51.360;12.474;2023-04-15T21:49:26;14.37;;;11.00;;
8986;SDS011;4529;51.360;12.474;2023-04-15T21:54:29;13.43;;;10.47;;
8986;SDS011;4529;51.360;12.474;2023-04-15T21:59:34;12.50;;;10.37;;
8986;SDS011;4529;51.360;12.474;2023-04-15T22:04:37;12.93;;;10.43;;
8986;SDS011;4529;51.360;12.474;2023-04-15T22:09:41;12.93;;;10.57;;
8986;SDS011;4529;51.360;12.474;2023-04-15T22:14:44;12.97;;;10.70;;
8986;SDS011;4529;51.360;12.474;2023-04-15T22:19:48;12.73;;;10.90;;
8986;SDS011;4529;51.360;12.474;2023-04-15T22:24:51;13.53;;;10.77;;
8986;SDS011;4529;51.360;12.474;2023-04-15T22:29:55;13.83;;;11.17;;
8986;SDS011;4529;51.360;12.474;2023-04-15T22:35:00;14.07;;;11.20;;
8986;SDS011;4529;51.360;12.474;2023-04-15T22:40:04;13.40;;;11.00;;
8986;SDS011;4529;51.360;12.474;2023-04-15T22:45:08;13.87;;;10.90;;
8986;SDS011;4529;51.360;12.474;2023-04-15T22:50:12;13.80;;;10.90;;
8986;SDS011;4529;51.360;12.474;2023-04-15T22:55:16;14.53;;;11.10;;
8986;SDS011;4529;51.360;12.474;2023-04-15T23:00:20;13.30;;;10.80;;
8986;SDS011;4529;51.360;12.474;2023-04-15T23:05:23;13.50;;;10.60;;
8986;SDS011;4529;51.360;12.474;2023-04-15T23:10:27;12.23;;;9.93;;
8986;SDS011;4529;51.360;12.474;2023-04-15T23:15:30;10.57;;;9.13;;
8986;SDS011;4529;51.360;12.474;2023-04-15T23:20:34;10.87;;;9.07;;
8986;SDS011;4529;51.360;12.474;2023-04-15T23:25:37;10.00;;;8.27;;
8986;SDS011;4529;51.360;12.474;2023-04-15T23:30:41;11.90;;;8.80;;
8986;SDS011;4529;51.360;12.474;2023-04-15T23:41:44;12.83;;;9.57;;
8986;SDS011;4529;51.360;12.474;2023-04-15T23:46:47;11.93;;;9.77;;
8986;SDS011;4529;51.360;12.474;2023-04-15T23:51:51;11.90;;;10.07;;
8986;SDS011;4529;51.360;12.474;2023-04-15T23:56:54;12.53;;;9.67;;
